Joyce Hale — WDB9906 — position and weather

sailwx.info

Track history (hours):
 
Tides and Currents Weather Stations Pressure Air Temp Water Temp Dewpoint Dewpoint Depression Visibility Wind Speed Wind Dir Waves Ship Positions

Joyce Hale

Owner: American River Transportation Company, St Louis, MO. More information available from US FCC via Universal Licensing System and Coast Guard Vessel Documentation Center.

Last reported at 2018-May-06 09:38 UTC. Time now 2018-Jun-22 15:24 UTC.
Position N 39°22' W 090°54'.
Warning: this ship's position is 47 days out of date.

Length 49 m; draft 2.9 m.

Type: Ship (hazmat cat B). MMSI: 366984910.

Date/timePositionNaut miles runAvg speedWind from/ knotsBaromVisibWave heightAir tempDewpointWater temp
2018-May-06 09:38N 39°22' W 090°54'1 0.7
2018-May-06 07:52N 39°21' W 090°52'9 4.0
2018-May-06 05:40N 39°16' W 090°44'0 1.7
2018-May-06 05:29N 39°15' W 090°44'6 3.5
2018-May-06 03:42N 39°09' W 090°43'1 3.5
2018-May-06 03:20N 39°08' W 090°42'3 4.6
2018-May-06 02:42N 39°05' W 090°41'1 4.4
2018-May-06 02:30N 39°05' W 090°41'2 4.2
2018-May-06 02:01N 39°03' W 090°43'2 4.3
2018-May-06 01:30N 39°01' W 090°42'1 1.4
2018-May-06 01:00N 39°00' W 090°41'0 0.3
2018-May-06 00:30N 39°00' W 090°41'0 0.0
2018-May-06 00:00N 39°00' W 090°41'0 0.3
2018-May-05 23:29N 38°60' W 090°41'1 2.0
2018-May-05 23:00N 38°59' W 090°41'1 2.3
2018-May-05 22:28N 38°58' W 090°40'2 3.6
2018-May-05 22:00N 38°56' W 090°40'1 1.2
2018-May-05 21:30N 38°56' W 090°40'0 0.3
2018-May-05 21:00N 38°56' W 090°40'2 3.5
2018-May-05 20:30N 38°54' W 090°38'2 4.5
2018-May-05 20:00N 38°52' W 090°37'2 4.5
2018-May-05 19:30N 38°52' W 090°34'2 4.3
2018-May-05 19:00N 38°53' W 090°32'2 4.3
2018-May-05 18:31N 38°55' W 090°30'2 3.8
2018-May-05 18:00N 38°57' W 090°29'2 3.9
2018-May-05 17:30N 38°57' W 090°27'2 4.3
2018-May-05 17:01N 38°58' W 090°24'3 4.9
2018-May-05 16:30N 38°57' W 090°21'2 4.8
2018-May-05 16:00N 38°55' W 090°18'2 4.7
2018-May-05 15:30N 38°55' W 090°15'2 4.4
2018-May-05 15:00N 38°54' W 090°13'2 4.0
2018-May-05 14:30N 38°53' W 090°11'2 3.5
2018-May-05 14:00N 38°52' W 090°09'0 0.5
2018-May-05 13:31N 38°52' W 090°09'0 0.9
2018-May-05 13:00N 38°52' W 090°08'0 0.2
2018-May-05 12:30N 38°52' W 090°08'0 0.0
2018-May-05 12:01N 38°52' W 090°08'0 0.0
2018-May-05 11:30N 38°52' W 090°08'0 0.0
2018-May-05 11:00N 38°52' W 090°08'1 1.4
2018-May-05 10:30N 38°51' W 090°07'1 2.4
2018-May-05 10:01N 38°50' W 090°06'3 5.1
2018-May-05 09:30N 38°48' W 090°07'2 4.2
2018-May-05 09:00N 38°46' W 090°08'1 3.0
2018-May-05 08:31N 38°45' W 090°09'0 0.6
2018-May-05 08:01N 38°44' W 090°09'1 1.4
2018-May-05 07:30N 38°44' W 090°10'1 2.8
2018-May-05 07:00N 38°42' W 090°11'1 1.3
2018-May-05 06:31N 38°42' W 090°11'1 1.0
2018-May-05 06:00N 38°41' W 090°11'2 4.0
2018-May-05 05:31N 38°40' W 090°11'1 2.6
2018-May-05 05:00N 38°38' W 090°11'2 2.9
2018-May-05 04:21N 38°36' W 090°11'2 0.2
2018-May-04 20:26N 38°35' W 090°13'3 8.0
2018-May-04 20:00N 38°38' W 090°11'4 7.8
2018-May-04 19:30N 38°42' W 090°11'2 3.0
2018-May-04 19:00N 38°43' W 090°10'4 7.1
2018-May-04 18:30N 38°46' W 090°08'4 7.2
2018-May-04 18:00N 38°50' W 090°07'0 0.2
2018-May-04 17:29N 38°50' W 090°06'0 0.0
2018-May-04 16:59N 38°50' W 090°06'0 0.5
2018-May-04 16:30N 38°50' W 090°07'0 0.1
2018-May-04 16:00N 38°50' W 090°07'0 0.0
2018-May-04 15:30N 38°50' W 090°07'0 0.0
2018-May-04 15:00N 38°50' W 090°07'0 0.0
2018-May-04 14:30N 38°50' W 090°07'0 0.0
2018-May-04 14:00N 38°50' W 090°07'0 0.0
2018-May-04 13:30N 38°50' W 090°07'0 0.0
2018-May-04 13:00N 38°50' W 090°07'0 0.0
2018-May-04 12:30N 38°50' W 090°07'0 0.0
2018-May-04 12:00N 38°50' W 090°07'0 0.0
2018-May-04 11:30N 38°50' W 090°07'0 0.0
2018-May-04 11:00N 38°50' W 090°07'0 0.0
2018-May-04 10:30N 38°50' W 090°07'0 0.0
2018-May-04 10:00N 38°50' W 090°07'0 0.0
2018-May-04 09:30N 38°50' W 090°07'0 0.0
2018-May-04 09:00N 38°50' W 090°07'0 0.0
2018-May-04 08:27N 38°50' W 090°07'0 0.0
2018-May-04 08:00N 38°50' W 090°07'0 0.0
2018-May-04 07:30N 38°50' W 090°07'0 0.0
2018-May-04 07:00N 38°50' W 090°07'0 0.0
2018-May-04 06:30N 38°50' W 090°07'0 0.0
2018-May-04 06:00N 38°50' W 090°07'0 0.0
2018-May-04 05:30N 38°50' W 090°07'0 0.0
2018-May-04 05:00N 38°50' W 090°07'0 0.0
2018-May-04 04:30N 38°50' W 090°07'0 0.0
2018-May-04 04:00N 38°50' W 090°07'0 0.0
2018-May-04 03:30N 38°50' W 090°07'0 0.0
2018-May-04 03:00N 38°50' W 090°07'0 0.0
2018-May-04 02:30N 38°50' W 090°07'0 0.0
2018-May-04 02:00N 38°50' W 090°07'0 0.0
2018-May-04 01:30N 38°50' W 090°07'0 0.0
2018-May-04 01:00N 38°50' W 090°07'0 0.0
2018-May-04 00:30N 38°50' W 090°07'0 0.0
2018-May-04 00:00N 38°50' W 090°07'0 0.0
2018-May-03 23:30N 38°50' W 090°07'0 0.0
2018-May-03 23:00N 38°50' W 090°07'0 0.0
2018-May-03 22:30N 38°50' W 090°07'0 0.0
2018-May-03 22:00N 38°50' W 090°07'0 0.0
2018-May-03 21:30N 38°50' W 090°07'0 0.0
2018-May-03 21:00N 38°50' W 090°07'0 0.0
2018-May-03 20:30N 38°50' W 090°07'0 0.0
2018-May-03 20:00N 38°50' W 090°07'0 0.0
2018-May-03 19:30N 38°50' W 090°07'0 0.1
2018-May-03 19:00N 38°50' W 090°07'0 0.8
2018-May-03 18:30N 38°49' W 090°07'0 0.0
2018-May-03 18:00N 38°49' W 090°07'0 0.0
2018-May-03 17:30N 38°49' W 090°07'0 0.0
2018-May-03 17:00N 38°49' W 090°07'0 0.0
2018-May-03 16:30N 38°49' W 090°07'0 0.0
2018-May-03 16:00N 38°49' W 090°07'0 0.0
2018-May-03 15:30N 38°49' W 090°07'0 0.0
2018-May-03 15:00N 38°49' W 090°07'0 0.0
2018-May-03 14:30N 38°49' W 090°07'0 0.0
2018-May-03 14:00N 38°49' W 090°07'0 0.8
2018-May-03 13:29N 38°50' W 090°07'0 0.0
2018-May-03 12:59N 38°50' W 090°07'0 0.0
2018-May-03 12:29N 38°50' W 090°07'0 0.0
2018-May-03 11:59N 38°50' W 090°07'0 0.0
2018-May-03 11:29N 38°50' W 090°07'0 0.0
2018-May-03 10:59N 38°50' W 090°07'0 0.0
2018-May-03 10:29N 38°50' W 090°07'0 0.0
2018-May-03 09:59N 38°50' W 090°07'0 0.0
2018-May-03 09:29N 38°50' W 090°07'0 0.0
2018-May-03 08:59N 38°50' W 090°07'0 0.0
2018-May-03 08:29N 38°50' W 090°07'0 0.0
2018-May-03 07:59N 38°50' W 090°07'0 0.0
2018-May-03 07:29N 38°50' W 090°07'0 0.0
2018-May-03 06:59N 38°50' W 090°07'0 0.0
2018-May-03 06:29N 38°50' W 090°07'0 0.0
2018-May-03 05:59N 38°50' W 090°07'0 0.0
2018-May-03 05:29N 38°50' W 090°07'0 0.0
2018-May-03 04:59N 38°50' W 090°07'0 0.0
2018-May-03 04:29N 38°50' W 090°07'0 0.0
2018-May-03 03:59N 38°50' W 090°07'0 0.0
2018-May-03 03:29N 38°50' W 090°07'0 0.0
2018-May-03 02:59N 38°50' W 090°07'0 0.0
2018-May-03 02:29N 38°50' W 090°07'0 0.0
2018-May-03 01:59N 38°50' W 090°07'0 0.0
2018-May-03 01:29N 38°50' W 090°07'0 0.0
2018-May-03 00:59N 38°50' W 090°07'0 0.0
2018-May-03 00:29N 38°50' W 090°07'0 0.0
2018-May-02 23:59N 38°50' W 090°07'0 0.0
2018-May-02 23:26N 38°50' W 090°07'0 0.0
2018-May-02 22:59N 38°50' W 090°07'0 0.0
2018-May-02 22:29N 38°50' W 090°07'0 0.0
2018-May-02 21:59N 38°50' W 090°07'0 0.0
2018-May-02 21:29N 38°50' W 090°07'0 0.0
2018-May-02 20:59N 38°50' W 090°07'0 0.0
2018-May-02 20:29N 38°50' W 090°07'0 0.0
2018-May-02 19:59N 38°50' W 090°07'0 0.0
2018-May-02 19:29N 38°50' W 090°07'0 0.0
2018-May-02 18:59N 38°50' W 090°07'0 0.0
2018-May-02 18:29N 38°50' W 090°07'0 0.0
2018-May-02 17:59N 38°50' W 090°07'0 0.0
2018-May-02 17:29N 38°50' W 090°07'0 0.0
2018-May-02 16:59N 38°50' W 090°07'0 0.0
2018-May-02 16:29N 38°50' W 090°07'0 0.0
2018-May-02 15:59N 38°50' W 090°07'0 0.0
2018-May-02 15:29N 38°50' W 090°07'0 0.0
2018-May-02 14:59N 38°50' W 090°07'0 0.0
2018-May-02 14:29N 38°50' W 090°07'0 0.0
2018-May-02 13:59N 38°50' W 090°07'0 0.0
2018-May-02 13:29N 38°50' W 090°07'0 0.0
2018-May-02 12:59N 38°50' W 090°07'0 0.0
2018-May-02 12:29N 38°50' W 090°07'0 0.0
2018-May-02 11:59N 38°50' W 090°07'0 0.0
2018-May-02 11:29N 38°50' W 090°07'0 0.0
2018-May-02 10:59N 38°50' W 090°07'0 0.0
2018-May-02 10:29N 38°50' W 090°07'0 0.0
2018-May-02 09:59N 38°50' W 090°07'0 0.0
2018-May-02 09:29N 38°50' W 090°07'0 0.0
2018-May-02 08:59N 38°50' W 090°07'0 0.0
2018-May-02 08:29N 38°50' W 090°07'0 0.0
2018-May-02 07:59N 38°50' W 090°07'0 0.0
2018-May-02 07:29N 38°50' W 090°07'0 0.0
2018-May-02 06:59N 38°50' W 090°07'0 0.0
2018-May-02 06:29N 38°50' W 090°07'0 0.0
2018-May-02 05:59N 38°50' W 090°07'0 0.0
2018-May-02 05:29N 38°50' W 090°07'0 0.0
2018-May-02 04:59N 38°50' W 090°07'0 0.0
2018-May-02 04:29N 38°50' W 090°07'0 0.0
2018-May-02 03:59N 38°50' W 090°07'0 0.0
2018-May-02 03:29N 38°50' W 090°07'0 0.0
2018-May-02 02:59N 38°50' W 090°07'0 0.0
2018-May-02 02:29N 38°50' W 090°07'0 0.0
2018-May-02 01:59N 38°50' W 090°07'0 0.0
2018-May-02 01:29N 38°50' W 090°07'0 0.0
2018-May-02 00:59N 38°50' W 090°07'0 0.0
2018-May-02 00:29N 38°50' W 090°07'0 0.0
2018-May-01 23:59N 38°50' W 090°07'0 0.0
2018-May-01 23:29N 38°50' W 090°07'0 0.0
2018-May-01 22:59N 38°50' W 090°07'0 0.0
2018-May-01 22:29N 38°50' W 090°07'0 0.0
2018-May-01 21:59N 38°50' W 090°07'0 0.0
2018-May-01 21:29N 38°50' W 090°07'0 0.0
2018-May-01 20:59N 38°50' W 090°07'0 0.0
2018-May-01 20:29N 38°50' W 090°07'0 0.1
2018-May-01 19:58N 38°50' W 090°07'0 0.0
2018-May-01 19:28N 38°50' W 090°07'0 0.0
2018-May-01 18:58N 38°50' W 090°06'0 0.0
2018-May-01 18:28N 38°50' W 090°07'0 0.0
2018-May-01 17:58N 38°50' W 090°06'0 0.0
2018-May-01 17:28N 38°50' W 090°06'0 0.0
2018-May-01 16:58N 38°50' W 090°07'0 0.0
2018-May-01 16:28N 38°50' W 090°06'0 0.0
2018-May-01 15:58N 38°50' W 090°06'0 0.0
2018-May-01 15:30N 38°50' W 090°07'0 0.0
2018-May-01 15:00N 38°50' W 090°06'0 0.0
2018-May-01 14:30N 38°50' W 090°07'0 0.0
2018-May-01 14:00N 38°50' W 090°06'0 0.0
2018-May-01 13:30N 38°50' W 090°06'0 0.0
2018-May-01 13:00N 38°50' W 090°06'0 0.0
2018-May-01 12:30N 38°50' W 090°06'0 0.0
2018-May-01 12:00N 38°50' W 090°06'0 0.0
2018-May-01 11:30N 38°50' W 090°06'0 0.0
2018-May-01 11:00N 38°50' W 090°06'0 0.0
2018-May-01 10:30N 38°50' W 090°06'0 0.0
2018-May-01 10:00N 38°50' W 090°06'0 0.0
2018-May-01 09:30N 38°50' W 090°06'1 2.1
2018-May-01 09:00N 38°49' W 090°07'2 3.7
2018-May-01 08:29N 38°47' W 090°08'3 5.9
2018-May-01 08:00N 38°44' W 090°09'3 5.0
2018-May-01 07:30N 38°42' W 090°11'1 2.5
2018-May-01 07:00N 38°41' W 090°11'3 4.9
2018-May-01 06:25N 38°38' W 090°11'  
Track history (hours):
 
Tides and Currents Weather Stations Pressure Air Temp Water Temp Dewpoint Dewpoint Depression Visibility Wind Speed Wind Dir Waves Ship Positions

Joyce Hale

Owner: American River Transportation Company, St Louis, MO. More information available from US FCC via Universal Licensing System and Coast Guard Vessel Documentation Center.

Last reported at 2018-May-06 09:38 UTC. Time now 2018-Jun-22 15:24 UTC.
Position N 39°22' W 090°54'.
Warning: this ship's position is 47 days out of date.

Length 49 m; draft 2.9 m.

Type: Ship (hazmat cat B). MMSI: 366984910.

Date/timePositionNaut miles runAvg speedWind from/ knotsBaromVisibWave heightAir tempDewpointWater temp
2018-May-06 09:38N 39°22' W 090°54'1 0.7
2018-May-06 07:52N 39°21' W 090°52'9 4.0
2018-May-06 05:40N 39°16' W 090°44'0 1.7
2018-May-06 05:29N 39°15' W 090°44'6 3.5
2018-May-06 03:42N 39°09' W 090°43'1 3.5
2018-May-06 03:20N 39°08' W 090°42'3 4.6
2018-May-06 02:42N 39°05' W 090°41'1 4.4
2018-May-06 02:30N 39°05' W 090°41'2 4.2
2018-May-06 02:01N 39°03' W 090°43'2 4.3
2018-May-06 01:30N 39°01' W 090°42'1 1.4
2018-May-06 01:00N 39°00' W 090°41'0 0.3
2018-May-06 00:30N 39°00' W 090°41'0 0.0
2018-May-06 00:00N 39°00' W 090°41'0 0.3
2018-May-05 23:29N 38°60' W 090°41'1 2.0
2018-May-05 23:00N 38°59' W 090°41'1 2.3
2018-May-05 22:28N 38°58' W 090°40'2 3.6
2018-May-05 22:00N 38°56' W 090°40'1 1.2
2018-May-05 21:30N 38°56' W 090°40'0 0.3
2018-May-05 21:00N 38°56' W 090°40'2 3.5
2018-May-05 20:30N 38°54' W 090°38'2 4.5
2018-May-05 20:00N 38°52' W 090°37'2 4.5
2018-May-05 19:30N 38°52' W 090°34'2 4.3
2018-May-05 19:00N 38°53' W 090°32'2 4.3
2018-May-05 18:31N 38°55' W 090°30'2 3.8
2018-May-05 18:00N 38°57' W 090°29'2 3.9
2018-May-05 17:30N 38°57' W 090°27'2 4.3
2018-May-05 17:01N 38°58' W 090°24'3 4.9
2018-May-05 16:30N 38°57' W 090°21'2 4.8
2018-May-05 16:00N 38°55' W 090°18'2 4.7
2018-May-05 15:30N 38°55' W 090°15'2 4.4
2018-May-05 15:00N 38°54' W 090°13'2 4.0
2018-May-05 14:30N 38°53' W 090°11'2 3.5
2018-May-05 14:00N 38°52' W 090°09'0 0.5
2018-May-05 13:31N 38°52' W 090°09'0 0.9
2018-May-05 13:00N 38°52' W 090°08'0 0.2
2018-May-05 12:30N 38°52' W 090°08'0 0.0
2018-May-05 12:01N 38°52' W 090°08'0 0.0
2018-May-05 11:30N 38°52' W 090°08'0 0.0
2018-May-05 11:00N 38°52' W 090°08'1 1.4
2018-May-05 10:30N 38°51' W 090°07'1 2.4
2018-May-05 10:01N 38°50' W 090°06'3 5.1
2018-May-05 09:30N 38°48' W 090°07'2 4.2
2018-May-05 09:00N 38°46' W 090°08'1 3.0
2018-May-05 08:31N 38°45' W 090°09'0 0.6
2018-May-05 08:01N 38°44' W 090°09'1 1.4
2018-May-05 07:30N 38°44' W 090°10'1 2.8
2018-May-05 07:00N 38°42' W 090°11'1 1.3
2018-May-05 06:31N 38°42' W 090°11'1 1.0
2018-May-05 06:00N 38°41' W 090°11'2 4.0
2018-May-05 05:31N 38°40' W 090°11'1 2.6
2018-May-05 05:00N 38°38' W 090°11'2 2.9
2018-May-05 04:21N 38°36' W 090°11'2 0.2
2018-May-04 20:26N 38°35' W 090°13'3 8.0
2018-May-04 20:00N 38°38' W 090°11'4 7.8
2018-May-04 19:30N 38°42' W 090°11'2 3.0
2018-May-04 19:00N 38°43' W 090°10'4 7.1
2018-May-04 18:30N 38°46' W 090°08'4 7.2
2018-May-04 18:00N 38°50' W 090°07'0 0.2
2018-May-04 17:29N 38°50' W 090°06'0 0.0
2018-May-04 16:59N 38°50' W 090°06'0 0.5
2018-May-04 16:30N 38°50' W 090°07'0 0.1
2018-May-04 16:00N 38°50' W 090°07'0 0.0
2018-May-04 15:30N 38°50' W 090°07'0 0.0
2018-May-04 15:00N 38°50' W 090°07'0 0.0
2018-May-04 14:30N 38°50' W 090°07'0 0.0
2018-May-04 14:00N 38°50' W 090°07'0 0.0
2018-May-04 13:30N 38°50' W 090°07'0 0.0
2018-May-04 13:00N 38°50' W 090°07'0 0.0
2018-May-04 12:30N 38°50' W 090°07'0 0.0
2018-May-04 12:00N 38°50' W 090°07'0 0.0
2018-May-04 11:30N 38°50' W 090°07'0 0.0
2018-May-04 11:00N 38°50' W 090°07'0 0.0
2018-May-04 10:30N 38°50' W 090°07'0 0.0
2018-May-04 10:00N 38°50' W 090°07'0 0.0
2018-May-04 09:30N 38°50' W 090°07'0 0.0
2018-May-04 09:00N 38°50' W 090°07'0 0.0
2018-May-04 08:27N 38°50' W 090°07'0 0.0
2018-May-04 08:00N 38°50' W 090°07'0 0.0
2018-May-04 07:30N 38°50' W 090°07'0 0.0
2018-May-04 07:00N 38°50' W 090°07'0 0.0
2018-May-04 06:30N 38°50' W 090°07'0 0.0
2018-May-04 06:00N 38°50' W 090°07'0 0.0
2018-May-04 05:30N 38°50' W 090°07'0 0.0
2018-May-04 05:00N 38°50' W 090°07'0 0.0
2018-May-04 04:30N 38°50' W 090°07'0 0.0
2018-May-04 04:00N 38°50' W 090°07'0 0.0
2018-May-04 03:30N 38°50' W 090°07'0 0.0
2018-May-04 03:00N 38°50' W 090°07'0 0.0
2018-May-04 02:30N 38°50' W 090°07'0 0.0
2018-May-04 02:00N 38°50' W 090°07'0 0.0
2018-May-04 01:30N 38°50' W 090°07'0 0.0
2018-May-04 01:00N 38°50' W 090°07'0 0.0
2018-May-04 00:30N 38°50' W 090°07'0 0.0
2018-May-04 00:00N 38°50' W 090°07'0 0.0
2018-May-03 23:30N 38°50' W 090°07'0 0.0
2018-May-03 23:00N 38°50' W 090°07'0 0.0
2018-May-03 22:30N 38°50' W 090°07'0 0.0
2018-May-03 22:00N 38°50' W 090°07'0 0.0
2018-May-03 21:30N 38°50' W 090°07'0 0.0
2018-May-03 21:00N 38°50' W 090°07'0 0.0
2018-May-03 20:30N 38°50' W 090°07'0 0.0
2018-May-03 20:00N 38°50' W 090°07'0 0.0
2018-May-03 19:30N 38°50' W 090°07'0 0.1
2018-May-03 19:00N 38°50' W 090°07'0 0.8
2018-May-03 18:30N 38°49' W 090°07'0 0.0
2018-May-03 18:00N 38°49' W 090°07'0 0.0
2018-May-03 17:30N 38°49' W 090°07'0 0.0
2018-May-03 17:00N 38°49' W 090°07'0 0.0
2018-May-03 16:30N 38°49' W 090°07'0 0.0
2018-May-03 16:00N 38°49' W 090°07'0 0.0
2018-May-03 15:30N 38°49' W 090°07'0 0.0
2018-May-03 15:00N 38°49' W 090°07'0 0.0
2018-May-03 14:30N 38°49' W 090°07'0 0.0
2018-May-03 14:00N 38°49' W 090°07'0 0.8
2018-May-03 13:29N 38°50' W 090°07'0 0.0
2018-May-03 12:59N 38°50' W 090°07'0 0.0
2018-May-03 12:29N 38°50' W 090°07'0 0.0
2018-May-03 11:59N 38°50' W 090°07'0 0.0
2018-May-03 11:29N 38°50' W 090°07'0 0.0
2018-May-03 10:59N 38°50' W 090°07'0 0.0
2018-May-03 10:29N 38°50' W 090°07'0 0.0
2018-May-03 09:59N 38°50' W 090°07'0 0.0
2018-May-03 09:29N 38°50' W 090°07'0 0.0
2018-May-03 08:59N 38°50' W 090°07'0 0.0
2018-May-03 08:29N 38°50' W 090°07'0 0.0
2018-May-03 07:59N 38°50' W 090°07'0 0.0
2018-May-03 07:29N 38°50' W 090°07'0 0.0
2018-May-03 06:59N 38°50' W 090°07'0 0.0
2018-May-03 06:29N 38°50' W 090°07'0 0.0
2018-May-03 05:59N 38°50' W 090°07'0 0.0
2018-May-03 05:29N 38°50' W 090°07'0 0.0
2018-May-03 04:59N 38°50' W 090°07'0 0.0
2018-May-03 04:29N 38°50' W 090°07'0 0.0
2018-May-03 03:59N 38°50' W 090°07'0 0.0
2018-May-03 03:29N 38°50' W 090°07'0 0.0
2018-May-03 02:59N 38°50' W 090°07'0 0.0
2018-May-03 02:29N 38°50' W 090°07'0 0.0
2018-May-03 01:59N 38°50' W 090°07'0 0.0
2018-May-03 01:29N 38°50' W 090°07'0 0.0
2018-May-03 00:59N 38°50' W 090°07'0 0.0
2018-May-03 00:29N 38°50' W 090°07'0 0.0
2018-May-02 23:59N 38°50' W 090°07'0 0.0
2018-May-02 23:26N 38°50' W 090°07'0 0.0
2018-May-02 22:59N 38°50' W 090°07'0 0.0
2018-May-02 22:29N 38°50' W 090°07'0 0.0
2018-May-02 21:59N 38°50' W 090°07'0 0.0
2018-May-02 21:29N 38°50' W 090°07'0 0.0
2018-May-02 20:59N 38°50' W 090°07'0 0.0
2018-May-02 20:29N 38°50' W 090°07'0 0.0
2018-May-02 19:59N 38°50' W 090°07'0 0.0
2018-May-02 19:29N 38°50' W 090°07'0 0.0
2018-May-02 18:59N 38°50' W 090°07'0 0.0
2018-May-02 18:29N 38°50' W 090°07'0 0.0
2018-May-02 17:59N 38°50' W 090°07'0 0.0
2018-May-02 17:29N 38°50' W 090°07'0 0.0
2018-May-02 16:59N 38°50' W 090°07'0 0.0
2018-May-02 16:29N 38°50' W 090°07'0 0.0
2018-May-02 15:59N 38°50' W 090°07'0 0.0
2018-May-02 15:29N 38°50' W 090°07'0 0.0
2018-May-02 14:59N 38°50' W 090°07'0 0.0
2018-May-02 14:29N 38°50' W 090°07'0 0.0
2018-May-02 13:59N 38°50' W 090°07'0 0.0
2018-May-02 13:29N 38°50' W 090°07'0 0.0
2018-May-02 12:59N 38°50' W 090°07'0 0.0
2018-May-02 12:29N 38°50' W 090°07'0 0.0
2018-May-02 11:59N 38°50' W 090°07'0 0.0
2018-May-02 11:29N 38°50' W 090°07'0 0.0
2018-May-02 10:59N 38°50' W 090°07'0 0.0
2018-May-02 10:29N 38°50' W 090°07'0 0.0
2018-May-02 09:59N 38°50' W 090°07'0 0.0
2018-May-02 09:29N 38°50' W 090°07'0 0.0
2018-May-02 08:59N 38°50' W 090°07'0 0.0
2018-May-02 08:29N 38°50' W 090°07'0 0.0
2018-May-02 07:59N 38°50' W 090°07'0 0.0
2018-May-02 07:29N 38°50' W 090°07'0 0.0
2018-May-02 06:59N 38°50' W 090°07'0 0.0
2018-May-02 06:29N 38°50' W 090°07'0 0.0
2018-May-02 05:59N 38°50' W 090°07'0 0.0
2018-May-02 05:29N 38°50' W 090°07'0 0.0
2018-May-02 04:59N 38°50' W 090°07'0 0.0
2018-May-02 04:29N 38°50' W 090°07'0 0.0
2018-May-02 03:59N 38°50' W 090°07'0 0.0
2018-May-02 03:29N 38°50' W 090°07'0 0.0
2018-May-02 02:59N 38°50' W 090°07'0 0.0
2018-May-02 02:29N 38°50' W 090°07'0 0.0
2018-May-02 01:59N 38°50' W 090°07'0 0.0
2018-May-02 01:29N 38°50' W 090°07'0 0.0
2018-May-02 00:59N 38°50' W 090°07'0 0.0
2018-May-02 00:29N 38°50' W 090°07'0 0.0
2018-May-01 23:59N 38°50' W 090°07'0 0.0
2018-May-01 23:29N 38°50' W 090°07'0 0.0
2018-May-01 22:59N 38°50' W 090°07'0 0.0
2018-May-01 22:29N 38°50' W 090°07'0 0.0
2018-May-01 21:59N 38°50' W 090°07'0 0.0
2018-May-01 21:29N 38°50' W 090°07'0 0.0
2018-May-01 20:59N 38°50' W 090°07'0 0.0
2018-May-01 20:29N 38°50' W 090°07'0 0.1
2018-May-01 19:58N 38°50' W 090°07'0 0.0
2018-May-01 19:28N 38°50' W 090°07'0 0.0
2018-May-01 18:58N 38°50' W 090°06'0 0.0
2018-May-01 18:28N 38°50' W 090°07'0 0.0
2018-May-01 17:58N 38°50' W 090°06'0 0.0
2018-May-01 17:28N 38°50' W 090°06'0 0.0
2018-May-01 16:58N 38°50' W 090°07'0 0.0
2018-May-01 16:28N 38°50' W 090°06'0 0.0
2018-May-01 15:58N 38°50' W 090°06'0 0.0
2018-May-01 15:30N 38°50' W 090°07'0 0.0
2018-May-01 15:00N 38°50' W 090°06'0 0.0
2018-May-01 14:30N 38°50' W 090°07'0 0.0
2018-May-01 14:00N 38°50' W 090°06'0 0.0
2018-May-01 13:30N 38°50' W 090°06'0 0.0
2018-May-01 13:00N 38°50' W 090°06'0 0.0
2018-May-01 12:30N 38°50' W 090°06'0 0.0
2018-May-01 12:00N 38°50' W 090°06'0 0.0
2018-May-01 11:30N 38°50' W 090°06'0 0.0
2018-May-01 11:00N 38°50' W 090°06'0 0.0
2018-May-01 10:30N 38°50' W 090°06'0 0.0
2018-May-01 10:00N 38°50' W 090°06'0 0.0
2018-May-01 09:30N 38°50' W 090°06'1 2.1
2018-May-01 09:00N 38°49' W 090°07'2 3.7
2018-May-01 08:29N 38°47' W 090°08'3 5.9
2018-May-01 08:00N 38°44' W 090°09'3 5.0
2018-May-01 07:30N 38°42' W 090°11'1 2.5
2018-May-01 07:00N 38°41' W 090°11'3 4.9
2018-May-01 06:25N 38°38' W 090°11'  

Dump ship's entire track history